sensor_id;sensor_type;location;lat;lon;timestamp;P1;durP1;ratioP1;P2;durP2;ratioP2
12925;SDS011;6529;50.566;9.774;2023-03-30T00:00:33;3.00;;;1.40;;
12925;SDS011;6529;50.566;9.774;2023-03-30T00:02:58;5.27;;;1.70;;
12925;SDS011;6529;50.566;9.774;2023-03-30T00:05:27;3.67;;;1.60;;
12925;SDS011;6529;50.566;9.774;2023-03-30T00:07:53;3.17;;;1.50;;
12925;SDS011;6529;50.566;9.774;2023-03-30T00:10:20;4.67;;;1.50;;
12925;SDS011;6529;50.566;9.774;2023-03-30T00:12:46;3.47;;;1.50;;
12925;SDS011;6529;50.566;9.774;2023-03-30T00:15:15;5.83;;;1.70;;
12925;SDS011;6529;50.566;9.774;2023-03-30T00:17:42;3.97;;;1.80;;
12925;SDS011;6529;50.566;9.774;2023-03-30T00:20:09;4.27;;;1.80;;
12925;SDS011;6529;50.566;9.774;2023-03-30T00:22:36;2.90;;;1.77;;
12925;SDS011;6529;50.566;9.774;2023-03-30T00:25:07;6.13;;;1.80;;
12925;SDS011;6529;50.566;9.774;2023-03-30T00:27:37;3.80;;;1.70;;
12925;SDS011;6529;50.566;9.774;2023-03-30T00:30:04;2.37;;;1.70;;
12925;SDS011;6529;50.566;9.774;2023-03-30T00:32:31;2.90;;;1.63;;
12925;SDS011;6529;50.566;9.774;2023-03-30T00:34:58;3.67;;;1.40;;
12925;SDS011;6529;50.566;9.774;2023-03-30T00:37:24;3.70;;;1.70;;
12925;SDS011;6529;50.566;9.774;2023-03-30T00:39:50;3.40;;;1.80;;
12925;SDS011;6529;50.566;9.774;2023-03-30T00:42:17;2.57;;;1.60;;
12925;SDS011;6529;50.566;9.774;2023-03-30T00:47:34;3.00;;;1.60;;
12925;SDS011;6529;50.566;9.774;2023-03-30T00:50:07;3.10;;;1.70;;
12925;SDS011;6529;50.566;9.774;2023-03-30T00:52:35;3.23;;;1.40;;
12925;SDS011;6529;50.566;9.774;2023-03-30T00:55:01;2.63;;;1.77;;
12925;SDS011;6529;50.566;9.774;2023-03-30T00:57:29;3.50;;;1.80;;
12925;SDS011;6529;50.566;9.774;2023-03-30T00:59:57;2.13;;;1.80;;
12925;SDS011;6529;50.566;9.774;2023-03-30T01:02:23;2.87;;;1.57;;
12925;SDS011;6529;50.566;9.774;2023-03-30T01:04:50;4.33;;;1.50;;
12925;SDS011;6529;50.566;9.774;2023-03-30T01:07:20;4.30;;;1.67;;
12925;SDS011;6529;50.566;9.774;2023-03-30T01:09:48;3.97;;;1.53;;
12925;SDS011;6529;50.566;9.774;2023-03-30T01:12:15;3.47;;;1.70;;
12925;SDS011;6529;50.566;9.774;2023-03-30T01:14:41;2.90;;;1.60;;
12925;SDS011;6529;50.566;9.774;2023-03-30T01:25:50;4.90;;;1.97;;
12925;SDS011;6529;50.566;9.774;2023-03-30T01:28:29;3.83;;;1.80;;
12925;SDS011;6529;50.566;9.774;2023-03-30T01:34:15;3.53;;;1.80;;
12925;SDS011;6529;50.566;9.774;2023-03-30T01:42:57;4.37;;;1.80;;
12925;SDS011;6529;50.566;9.774;2023-03-30T01:51:07;5.63;;;2.03;;
12925;SDS011;6529;50.566;9.774;2023-03-30T01:56:12;3.67;;;1.73;;
12925;SDS011;6529;50.566;9.774;2023-03-30T02:01:20;5.17;;;1.77;;
12925;SDS011;6529;50.566;9.774;2023-03-30T02:03:48;4.23;;;2.00;;
12925;SDS011;6529;50.566;9.774;2023-03-30T02:06:21;5.30;;;1.67;;
12925;SDS011;6529;50.566;9.774;2023-03-30T02:09:09;2.90;;;1.90;;
12925;SDS011;6529;50.566;9.774;2023-03-30T02:11:39;4.63;;;1.90;;
12925;SDS011;6529;50.566;9.774;2023-03-30T02:14:08;3.80;;;1.70;;
12925;SDS011;6529;50.566;9.774;2023-03-30T02:16:36;4.13;;;1.87;;
12925;SDS011;6529;50.566;9.774;2023-03-30T02:19:12;3.33;;;1.70;;
12925;SDS011;6529;50.566;9.774;2023-03-30T02:21:39;4.90;;;1.87;;
12925;SDS011;6529;50.566;9.774;2023-03-30T02:24:06;5.57;;;2.10;;
12925;SDS011;6529;50.566;9.774;2023-03-30T02:26:41;6.60;;;1.70;;
12925;SDS011;6529;50.566;9.774;2023-03-30T02:29:10;3.03;;;1.67;;
12925;SDS011;6529;50.566;9.774;2023-03-30T02:31:36;6.93;;;2.07;;
12925;SDS011;6529;50.566;9.774;2023-03-30T02:39:55;6.13;;;1.90;;
12925;SDS011;6529;50.566;9.774;2023-03-30T02:42:53;6.53;;;1.90;;
12925;SDS011;6529;50.566;9.774;2023-03-30T02:48:27;6.30;;;1.93;;
12925;SDS011;6529;50.566;9.774;2023-03-30T02:57:09;5.23;;;1.93;;
12925;SDS011;6529;50.566;9.774;2023-03-30T03:02:26;5.40;;;1.97;;
12925;SDS011;6529;50.566;9.774;2023-03-30T03:04:56;4.00;;;1.80;;
12925;SDS011;6529;50.566;9.774;2023-03-30T03:07:22;3.63;;;1.73;;
12925;SDS011;6529;50.566;9.774;2023-03-30T03:09:49;3.67;;;1.87;;
12925;SDS011;6529;50.566;9.774;2023-03-30T03:12:14;7.00;;;2.17;;
12925;SDS011;6529;50.566;9.774;2023-03-30T03:14:40;4.70;;;1.90;;
12925;SDS011;6529;50.566;9.774;2023-03-30T03:17:07;4.37;;;2.10;;
12925;SDS011;6529;50.566;9.774;2023-03-30T03:19:33;6.20;;;1.93;;
12925;SDS011;6529;50.566;9.774;2023-03-30T03:21:59;7.00;;;2.03;;
12925;SDS011;6529;50.566;9.774;2023-03-30T03:24:24;7.60;;;2.10;;
12925;SDS011;6529;50.566;9.774;2023-03-30T03:26:50;4.37;;;1.90;;
12925;SDS011;6529;50.566;9.774;2023-03-30T03:29:16;3.93;;;2.43;;
12925;SDS011;6529;50.566;9.774;2023-03-30T03:31:41;2.77;;;1.60;;
12925;SDS011;6529;50.566;9.774;2023-03-30T03:34:07;4.83;;;2.00;;
12925;SDS011;6529;50.566;9.774;2023-03-30T03:36:32;5.33;;;1.90;;
12925;SDS011;6529;50.566;9.774;2023-03-30T03:38:58;5.77;;;2.13;;
12925;SDS011;6529;50.566;9.774;2023-03-30T03:41:24;5.17;;;2.63;;
12925;SDS011;6529;50.566;9.774;2023-03-30T03:43:50;7.07;;;2.20;;
12925;SDS011;6529;50.566;9.774;2023-03-30T03:46:15;5.77;;;2.10;;
12925;SDS011;6529;50.566;9.774;2023-03-30T03:48:41;7.67;;;2.43;;
12925;SDS011;6529;50.566;9.774;2023-03-30T03:51:06;4.27;;;2.20;;
12925;SDS011;6529;50.566;9.774;2023-03-30T03:53:33;4.13;;;2.50;;
12925;SDS011;6529;50.566;9.774;2023-03-30T03:55:58;4.97;;;2.10;;
12925;SDS011;6529;50.566;9.774;2023-03-30T03:58:24;7.97;;;2.30;;
12925;SDS011;6529;50.566;9.774;2023-03-30T04:00:50;5.37;;;2.10;;
12925;SDS011;6529;50.566;9.774;2023-03-30T04:03:21;8.43;;;2.30;;
12925;SDS011;6529;50.566;9.774;2023-03-30T04:05:46;3.50;;;2.00;;
12925;SDS011;6529;50.566;9.774;2023-03-30T04:08:12;6.77;;;2.20;;
12925;SDS011;6529;50.566;9.774;2023-03-30T04:10:38;5.13;;;2.20;;
12925;SDS011;6529;50.566;9.774;2023-03-30T04:13:05;6.70;;;2.40;;
12925;SDS011;6529;50.566;9.774;2023-03-30T04:15:31;3.97;;;2.17;;
12925;SDS011;6529;50.566;9.774;2023-03-30T04:17:57;3.70;;;2.03;;
12925;SDS011;6529;50.566;9.774;2023-03-30T04:20:23;5.23;;;1.93;;
12925;SDS011;6529;50.566;9.774;2023-03-30T04:22:52;6.70;;;2.07;;
12925;SDS011;6529;50.566;9.774;2023-03-30T04:25:19;5.70;;;2.30;;
12925;SDS011;6529;50.566;9.774;2023-03-30T04:27:49;8.60;;;2.70;;
12925;SDS011;6529;50.566;9.774;2023-03-30T04:30:15;8.50;;;2.43;;
12925;SDS011;6529;50.566;9.774;2023-03-30T04:32:42;4.83;;;2.60;;
12925;SDS011;6529;50.566;9.774;2023-03-30T04:35:09;7.07;;;2.40;;
12925;SDS011;6529;50.566;9.774;2023-03-30T04:37:35;7.27;;;2.60;;
12925;SDS011;6529;50.566;9.774;2023-03-30T04:40:03;8.43;;;2.73;;
12925;SDS011;6529;50.566;9.774;2023-03-30T04:42:37;4.20;;;2.13;;
12925;SDS011;6529;50.566;9.774;2023-03-30T04:45:03;4.80;;;2.13;;
12925;SDS011;6529;50.566;9.774;2023-03-30T04:47:31;5.50;;;2.37;;
12925;SDS011;6529;50.566;9.774;2023-03-30T04:49:56;4.77;;;2.27;;
12925;SDS011;6529;50.566;9.774;2023-03-30T04:52:22;5.57;;;2.20;;
12925;SDS011;6529;50.566;9.774;2023-03-30T04:54:48;9.70;;;2.80;;
12925;SDS011;6529;50.566;9.774;2023-03-30T04:57:14;5.27;;;2.70;;
12925;SDS011;6529;50.566;9.774;2023-03-30T04:59:40;5.77;;;2.30;;
12925;SDS011;6529;50.566;9.774;2023-03-30T05:02:06;6.07;;;2.23;;
12925;SDS011;6529;50.566;9.774;2023-03-30T05:04:32;3.80;;;2.27;;
12925;SDS011;6529;50.566;9.774;2023-03-30T05:06:58;8.37;;;2.50;;
12925;SDS011;6529;50.566;9.774;2023-03-30T05:09:24;4.70;;;2.00;;
12925;SDS011;6529;50.566;9.774;2023-03-30T05:11:49;6.67;;;1.90;;
12925;SDS011;6529;50.566;9.774;2023-03-30T05:14:15;6.87;;;2.63;;
12925;SDS011;6529;50.566;9.774;2023-03-30T05:16:41;5.30;;;2.10;;
12925;SDS011;6529;50.566;9.774;2023-03-30T05:19:06;6.07;;;2.80;;
12925;SDS011;6529;50.566;9.774;2023-03-30T05:21:33;9.57;;;2.23;;
12925;SDS011;6529;50.566;9.774;2023-03-30T05:23:58;4.10;;;2.20;;
12925;SDS011;6529;50.566;9.774;2023-03-30T05:26:24;5.37;;;2.33;;
12925;SDS011;6529;50.566;9.774;2023-03-30T05:28:50;6.23;;;2.20;;
12925;SDS011;6529;50.566;9.774;2023-03-30T05:31:16;5.43;;;2.20;;
12925;SDS011;6529;50.566;9.774;2023-03-30T05:33:43;6.70;;;2.13;;
12925;SDS011;6529;50.566;9.774;2023-03-30T05:36:09;5.80;;;2.40;;
12925;SDS011;6529;50.566;9.774;2023-03-30T05:38:34;6.83;;;2.50;;
12925;SDS011;6529;50.566;9.774;2023-03-30T05:41:00;5.70;;;2.17;;
12925;SDS011;6529;50.566;9.774;2023-03-30T05:43:26;11.10;;;2.93;;
12925;SDS011;6529;50.566;9.774;2023-03-30T05:45:52;6.87;;;2.13;;
12925;SDS011;6529;50.566;9.774;2023-03-30T05:48:17;5.93;;;2.90;;
12925;SDS011;6529;50.566;9.774;2023-03-30T05:50:43;8.87;;;2.50;;
12925;SDS011;6529;50.566;9.774;2023-03-30T05:53:11;4.43;;;2.50;;
12925;SDS011;6529;50.566;9.774;2023-03-30T05:55:36;3.93;;;2.20;;
12925;SDS011;6529;50.566;9.774;2023-03-30T05:58:02;7.43;;;2.40;;
12925;SDS011;6529;50.566;9.774;2023-03-30T06:00:28;4.80;;;2.00;;
12925;SDS011;6529;50.566;9.774;2023-03-30T06:02:57;6.07;;;2.50;;
12925;SDS011;6529;50.566;9.774;2023-03-30T06:05:23;5.80;;;2.57;;
12925;SDS011;6529;50.566;9.774;2023-03-30T06:07:49;6.13;;;2.73;;
12925;SDS011;6529;50.566;9.774;2023-03-30T06:10:14;6.33;;;2.67;;
12925;SDS011;6529;50.566;9.774;2023-03-30T06:12:41;8.70;;;2.97;;
12925;SDS011;6529;50.566;9.774;2023-03-30T06:15:07;7.20;;;3.67;;
12925;SDS011;6529;50.566;9.774;2023-03-30T06:17:33;15.53;;;6.43;;
12925;SDS011;6529;50.566;9.774;2023-03-30T06:20:00;10.10;;;4.03;;
12925;SDS011;6529;50.566;9.774;2023-03-30T06:22:26;11.33;;;6.20;;
12925;SDS011;6529;50.566;9.774;2023-03-30T06:24:52;9.63;;;3.30;;
12925;SDS011;6529;50.566;9.774;2023-03-30T06:27:18;6.90;;;2.90;;
12925;SDS011;6529;50.566;9.774;2023-03-30T06:29:44;6.97;;;3.27;;
12925;SDS011;6529;50.566;9.774;2023-03-30T06:32:09;8.97;;;4.10;;
12925;SDS011;6529;50.566;9.774;2023-03-30T06:34:35;8.20;;;3.90;;
12925;SDS011;6529;50.566;9.774;2023-03-30T06:37:00;6.03;;;4.00;;
12925;SDS011;6529;50.566;9.774;2023-03-30T06:39:26;10.60;;;4.50;;
12925;SDS011;6529;50.566;9.774;2023-03-30T06:41:51;9.50;;;3.90;;
12925;SDS011;6529;50.566;9.774;2023-03-30T06:44:17;8.27;;;3.20;;
12925;SDS011;6529;50.566;9.774;2023-03-30T06:46:43;10.50;;;4.70;;
12925;SDS011;6529;50.566;9.774;2023-03-30T06:49:10;10.23;;;4.63;;
12925;SDS011;6529;50.566;9.774;2023-03-30T06:51:36;6.67;;;3.90;;
12925;SDS011;6529;50.566;9.774;2023-03-30T06:54:01;9.40;;;3.77;;
12925;SDS011;6529;50.566;9.774;2023-03-30T06:56:27;8.17;;;4.07;;
12925;SDS011;6529;50.566;9.774;2023-03-30T06:58:53;8.00;;;3.93;;
12925;SDS011;6529;50.566;9.774;2023-03-30T07:01:19;7.83;;;3.57;;
12925;SDS011;6529;50.566;9.774;2023-03-30T07:03:44;5.17;;;2.40;;
12925;SDS011;6529;50.566;9.774;2023-03-30T07:06:10;5.13;;;2.53;;
12925;SDS011;6529;50.566;9.774;2023-03-30T07:08:36;9.47;;;3.20;;
12925;SDS011;6529;50.566;9.774;2023-03-30T07:11:03;11.43;;;3.07;;
12925;SDS011;6529;50.566;9.774;2023-03-30T07:13:29;7.77;;;2.90;;
12925;SDS011;6529;50.566;9.774;2023-03-30T07:15:54;6.73;;;2.57;;
12925;SDS011;6529;50.566;9.774;2023-03-30T07:18:20;5.20;;;2.50;;
12925;SDS011;6529;50.566;9.774;2023-03-30T07:20:46;4.27;;;2.60;;
12925;SDS011;6529;50.566;9.774;2023-03-30T07:23:11;7.17;;;2.70;;
12925;SDS011;6529;50.566;9.774;2023-03-30T07:25:37;5.40;;;2.83;;
12925;SDS011;6529;50.566;9.774;2023-03-30T07:28:05;6.80;;;2.73;;
12925;SDS011;6529;50.566;9.774;2023-03-30T07:30:33;6.40;;;2.70;;
12925;SDS011;6529;50.566;9.774;2023-03-30T07:32:59;4.93;;;2.63;;
12925;SDS011;6529;50.566;9.774;2023-03-30T07:35:25;5.53;;;2.67;;
12925;SDS011;6529;50.566;9.774;2023-03-30T07:37:51;7.07;;;2.70;;
12925;SDS011;6529;50.566;9.774;2023-03-30T07:40:17;5.83;;;2.90;;
12925;SDS011;6529;50.566;9.774;2023-03-30T07:42:45;5.40;;;2.70;;
12925;SDS011;6529;50.566;9.774;2023-03-30T07:45:11;6.03;;;2.70;;
12925;SDS011;6529;50.566;9.774;2023-03-30T07:47:37;7.93;;;3.13;;
12925;SDS011;6529;50.566;9.774;2023-03-30T07:50:03;6.17;;;2.57;;
12925;SDS011;6529;50.566;9.774;2023-03-30T07:52:29;7.70;;;2.60;;
12925;SDS011;6529;50.566;9.774;2023-03-30T07:54:54;9.40;;;2.90;;
12925;SDS011;6529;50.566;9.774;2023-03-30T07:57:20;6.77;;;2.90;;
12925;SDS011;6529;50.566;9.774;2023-03-30T07:59:46;6.20;;;3.70;;
12925;SDS011;6529;50.566;9.774;2023-03-30T08:02:12;8.07;;;2.93;;
12925;SDS011;6529;50.566;9.774;2023-03-30T08:04:38;7.70;;;3.40;;
12925;SDS011;6529;50.566;9.774;2023-03-30T08:07:05;7.40;;;3.60;;
12925;SDS011;6529;50.566;9.774;2023-03-30T08:09:32;8.67;;;3.70;;
12925;SDS011;6529;50.566;9.774;2023-03-30T08:11:58;5.43;;;2.77;;
12925;SDS011;6529;50.566;9.774;2023-03-30T08:14:23;5.67;;;2.53;;
12925;SDS011;6529;50.566;9.774;2023-03-30T08:16:51;8.47;;;3.90;;
12925;SDS011;6529;50.566;9.774;2023-03-30T08:19:18;7.17;;;2.80;;
12925;SDS011;6529;50.566;9.774;2023-03-30T08:21:44;4.07;;;2.73;;
12925;SDS011;6529;50.566;9.774;2023-03-30T08:24:10;5.57;;;2.83;;
12925;SDS011;6529;50.566;9.774;2023-03-30T08:26:36;8.00;;;3.20;;
12925;SDS011;6529;50.566;9.774;2023-03-30T08:29:02;5.50;;;2.60;;
12925;SDS011;6529;50.566;9.774;2023-03-30T08:31:28;8.63;;;3.63;;
12925;SDS011;6529;50.566;9.774;2023-03-30T08:33:56;4.53;;;2.33;;
12925;SDS011;6529;50.566;9.774;2023-03-30T08:36:27;5.27;;;2.50;;
12925;SDS011;6529;50.566;9.774;2023-03-30T08:38:53;6.60;;;3.03;;
12925;SDS011;6529;50.566;9.774;2023-03-30T08:41:29;5.13;;;2.60;;
12925;SDS011;6529;50.566;9.774;2023-03-30T08:44:18;5.13;;;2.93;;
12925;SDS011;6529;50.566;9.774;2023-03-30T08:46:51;5.80;;;2.97;;
12925;SDS011;6529;50.566;9.774;2023-03-30T08:49:18;9.77;;;3.03;;
12925;SDS011;6529;50.566;9.774;2023-03-30T08:51:44;4.57;;;2.93;;
12925;SDS011;6529;50.566;9.774;2023-03-30T08:54:15;6.27;;;2.60;;
12925;SDS011;6529;50.566;9.774;2023-03-30T08:56:59;5.07;;;2.90;;
12925;SDS011;6529;50.566;9.774;2023-03-30T09:02:12;5.07;;;2.63;;
12925;SDS011;6529;50.566;9.774;2023-03-30T09:04:58;5.67;;;2.70;;
12925;SDS011;6529;50.566;9.774;2023-03-30T09:07:32;6.10;;;2.60;;
12925;SDS011;6529;50.566;9.774;2023-03-30T09:10:02;4.37;;;2.37;;
12925;SDS011;6529;50.566;9.774;2023-03-30T09:12:37;7.17;;;2.83;;
12925;SDS011;6529;50.566;9.774;2023-03-30T09:15:17;6.10;;;2.70;;
12925;SDS011;6529;50.566;9.774;2023-03-30T09:17:51;6.10;;;2.70;;
12925;SDS011;6529;50.566;9.774;2023-03-30T09:20:28;5.80;;;2.93;;
12925;SDS011;6529;50.566;9.774;2023-03-30T09:22:57;3.63;;;2.60;;
12925;SDS011;6529;50.566;9.774;2023-03-30T09:30:47;5.20;;;2.53;;
12925;SDS011;6529;50.566;9.774;2023-03-30T09:36:10;4.30;;;2.50;;
12925;SDS011;6529;50.566;9.774;2023-03-30T09:38:37;4.70;;;2.70;;
12925;SDS011;6529;50.566;9.774;2023-03-30T09:43:52;3.83;;;2.73;;
12925;SDS011;6529;50.566;9.774;2023-03-30T09:46:22;5.17;;;2.80;;
12925;SDS011;6529;50.566;9.774;2023-03-30T09:48:48;4.67;;;2.90;;
12925;SDS011;6529;50.566;9.774;2023-03-30T09:53:46;7.37;;;3.10;;
12925;SDS011;6529;50.566;9.774;2023-03-30T09:56:25;33.67;;;8.43;;
12925;SDS011;6529;50.566;9.774;2023-03-30T09:58:51;38.67;;;11.93;;
12925;SDS011;6529;50.566;9.774;2023-03-30T10:01:18;10.43;;;3.80;;
12925;SDS011;6529;50.566;9.774;2023-03-30T10:06:48;5.70;;;2.90;;
12925;SDS011;6529;50.566;9.774;2023-03-30T10:09:21;5.67;;;3.33;;
12925;SDS011;6529;50.566;9.774;2023-03-30T10:11:48;4.13;;;2.80;;
12925;SDS011;6529;50.566;9.774;2023-03-30T10:14:29;3.90;;;2.60;;
12925;SDS011;6529;50.566;9.774;2023-03-30T10:16:57;4.90;;;2.90;;
12925;SDS011;6529;50.566;9.774;2023-03-30T10:19:24;3.83;;;2.70;;
12925;SDS011;6529;50.566;9.774;2023-03-30T10:21:54;3.60;;;2.80;;
12925;SDS011;6529;50.566;9.774;2023-03-30T10:24:28;4.97;;;2.97;;
12925;SDS011;6529;50.566;9.774;2023-03-30T10:26:58;6.03;;;3.53;;
12925;SDS011;6529;50.566;9.774;2023-03-30T10:29:33;5.83;;;2.73;;
12925;SDS011;6529;50.566;9.774;2023-03-30T10:32:09;4.50;;;2.90;;
12925;SDS011;6529;50.566;9.774;2023-03-30T10:34:45;4.90;;;3.13;;
12925;SDS011;6529;50.566;9.774;2023-03-30T10:37:15;5.30;;;3.00;;
12925;SDS011;6529;50.566;9.774;2023-03-30T10:39:45;5.00;;;3.03;;
12925;SDS011;6529;50.566;9.774;2023-03-30T10:42:19;6.03;;;3.00;;
12925;SDS011;6529;50.566;9.774;2023-03-30T10:44:53;7.40;;;3.17;;
12925;SDS011;6529;50.566;9.774;2023-03-30T11:03:54;5.83;;;3.40;;
12925;SDS011;6529;50.566;9.774;2023-03-30T11:06:25;5.20;;;3.17;;
12925;SDS011;6529;50.566;9.774;2023-03-30T11:09:04;5.27;;;3.67;;
12925;SDS011;6529;50.566;9.774;2023-03-30T11:11:45;5.50;;;3.20;;
12925;SDS011;6529;50.566;9.774;2023-03-30T11:14:22;5.53;;;2.70;;
12925;SDS011;6529;50.566;9.774;2023-03-30T11:16:54;7.33;;;3.30;;
12925;SDS011;6529;50.566;9.774;2023-03-30T11:19:33;6.57;;;2.77;;
12925;SDS011;6529;50.566;9.774;2023-03-30T11:22:10;5.23;;;2.90;;
12925;SDS011;6529;50.566;9.774;2023-03-30T11:24:40;5.53;;;3.03;;
12925;SDS011;6529;50.566;9.774;2023-03-30T11:29:50;4.47;;;2.60;;
12925;SDS011;6529;50.566;9.774;2023-03-30T11:35:16;3.47;;;2.70;;
12925;SDS011;6529;50.566;9.774;2023-03-30T11:40:45;7.00;;;3.10;;
12925;SDS011;6529;50.566;9.774;2023-03-30T11:43:16;3.83;;;2.57;;
12925;SDS011;6529;50.566;9.774;2023-03-30T11:48:38;4.10;;;2.60;;
12925;SDS011;6529;50.566;9.774;2023-03-30T11:57:03;4.63;;;2.80;;
12925;SDS011;6529;50.566;9.774;2023-03-30T12:05:10;4.60;;;2.13;;
12925;SDS011;6529;50.566;9.774;2023-03-30T12:10:41;5.97;;;2.40;;
12925;SDS011;6529;50.566;9.774;2023-03-30T12:13:12;4.90;;;2.50;;
12925;SDS011;6529;50.566;9.774;2023-03-30T12:15:53;5.13;;;2.50;;
12925;SDS011;6529;50.566;9.774;2023-03-30T12:21:40;3.50;;;2.00;;
12925;SDS011;6529;50.566;9.774;2023-03-30T12:26:53;3.50;;;1.97;;
12925;SDS011;6529;50.566;9.774;2023-03-30T12:29:20;3.00;;;1.67;;
12925;SDS011;6529;50.566;9.774;2023-03-30T12:31:46;3.53;;;1.80;;
12925;SDS011;6529;50.566;9.774;2023-03-30T12:34:15;2.93;;;1.83;;
12925;SDS011;6529;50.566;9.774;2023-03-30T12:36:41;4.63;;;1.97;;
12925;SDS011;6529;50.566;9.774;2023-03-30T12:39:31;3.80;;;1.90;;
12925;SDS011;6529;50.566;9.774;2023-03-30T12:56:05;3.03;;;0.80;;
12925;SDS011;6529;50.566;9.774;2023-03-30T13:01:44;0.70;;;0.60;;
12925;SDS011;6529;50.566;9.774;2023-03-30T13:04:20;1.03;;;0.63;;
12925;SDS011;6529;50.566;9.774;2023-03-30T13:06:52;1.73;;;0.70;;
12925;SDS011;6529;50.566;9.774;2023-03-30T13:27:39;0.70;;;0.70;;
12925;SDS011;6529;50.566;9.774;2023-03-30T13:43:39;1.30;;;1.07;;
12925;SDS011;6529;50.566;9.774;2023-03-30T13:46:31;1.33;;;1.00;;
12925;SDS011;6529;50.566;9.774;2023-03-30T13:51:43;2.03;;;0.90;;
12925;SDS011;6529;50.566;9.774;2023-03-30T13:54:11;1.00;;;0.60;;
12925;SDS011;6529;50.566;9.774;2023-03-30T13:56:38;4.27;;;2.47;;
12925;SDS011;6529;50.566;9.774;2023-03-30T13:59:12;1.50;;;1.27;;
12925;SDS011;6529;50.566;9.774;2023-03-30T14:01:43;3.70;;;2.00;;
12925;SDS011;6529;50.566;9.774;2023-03-30T14:04:13;1.70;;;1.20;;
12925;SDS011;6529;50.566;9.774;2023-03-30T14:06:41;1.80;;;1.20;;
12925;SDS011;6529;50.566;9.774;2023-03-30T14:16:54;1.87;;;0.93;;
12925;SDS011;6529;50.566;9.774;2023-03-30T14:19:28;0.87;;;0.70;;
12925;SDS011;6529;50.566;9.774;2023-03-30T14:21:59;1.30;;;1.20;;
12925;SDS011;6529;50.566;9.774;2023-03-30T14:24:57;1.10;;;1.00;;
12925;SDS011;6529;50.566;9.774;2023-03-30T14:27:25;2.50;;;2.10;;
12925;SDS011;6529;50.566;9.774;2023-03-30T14:29:56;5.80;;;5.13;;
12925;SDS011;6529;50.566;9.774;2023-03-30T14:32:22;5.83;;;5.27;;
12925;SDS011;6529;50.566;9.774;2023-03-30T14:34:52;5.30;;;3.00;;
12925;SDS011;6529;50.566;9.774;2023-03-30T14:37:19;11.60;;;10.50;;
12925;SDS011;6529;50.566;9.774;2023-03-30T14:39:50;2.37;;;2.17;;
12925;SDS011;6529;50.566;9.774;2023-03-30T14:42:23;1.33;;;1.23;;
12925;SDS011;6529;50.566;9.774;2023-03-30T14:44:51;1.50;;;1.10;;
12925;SDS011;6529;50.566;9.774;2023-03-30T14:47:20;1.90;;;1.07;;
12925;SDS011;6529;50.566;9.774;2023-03-30T14:49:47;1.20;;;1.10;;
12925;SDS011;6529;50.566;9.774;2023-03-30T14:52:22;1.10;;;1.00;;
12925;SDS011;6529;50.566;9.774;2023-03-30T14:54:51;2.87;;;1.00;;
12925;SDS011;6529;50.566;9.774;2023-03-30T14:57:19;1.40;;;0.80;;
12925;SDS011;6529;50.566;9.774;2023-03-30T14:59:48;2.23;;;1.70;;
12925;SDS011;6529;50.566;9.774;2023-03-30T15:02:18;1.50;;;1.40;;
12925;SDS011;6529;50.566;9.774;2023-03-30T15:04:46;1.97;;;0.90;;
12925;SDS011;6529;50.566;9.774;2023-03-30T15:07:13;2.97;;;1.17;;
12925;SDS011;6529;50.566;9.774;2023-03-30T15:09:40;2.13;;;0.90;;
12925;SDS011;6529;50.566;9.774;2023-03-30T15:15:02;1.17;;;0.80;;
12925;SDS011;6529;50.566;9.774;2023-03-30T15:17:31;1.97;;;0.90;;
12925;SDS011;6529;50.566;9.774;2023-03-30T15:19:59;1.77;;;1.20;;
12925;SDS011;6529;50.566;9.774;2023-03-30T15:24:55;1.30;;;0.97;;
12925;SDS011;6529;50.566;9.774;2023-03-30T15:27:24;1.50;;;0.90;;
12925;SDS011;6529;50.566;9.774;2023-03-30T15:29:51;1.20;;;0.90;;
12925;SDS011;6529;50.566;9.774;2023-03-30T15:32:20;1.63;;;1.00;;
12925;SDS011;6529;50.566;9.774;2023-03-30T15:37:50;1.83;;;0.90;;
12925;SDS011;6529;50.566;9.774;2023-03-30T15:40:31;1.33;;;0.93;;
12925;SDS011;6529;50.566;9.774;2023-03-30T15:45:37;2.37;;;1.00;;
12925;SDS011;6529;50.566;9.774;2023-03-30T15:48:04;1.10;;;0.77;;
12925;SDS011;6529;50.566;9.774;2023-03-30T15:50:30;1.57;;;0.90;;
12925;SDS011;6529;50.566;9.774;2023-03-30T15:53:00;1.83;;;0.80;;
12925;SDS011;6529;50.566;9.774;2023-03-30T15:55:31;1.63;;;0.87;;
12925;SDS011;6529;50.566;9.774;2023-03-30T15:57:57;1.43;;;1.00;;
12925;SDS011;6529;50.566;9.774;2023-03-30T16:00:25;1.30;;;1.00;;
12925;SDS011;6529;50.566;9.774;2023-03-30T16:02:57;2.53;;;0.90;;
12925;SDS011;6529;50.566;9.774;2023-03-30T16:05:29;1.03;;;0.80;;
12925;SDS011;6529;50.566;9.774;2023-03-30T16:07:56;1.57;;;0.97;;
12925;SDS011;6529;50.566;9.774;2023-03-30T16:10:23;1.50;;;1.00;;
12925;SDS011;6529;50.566;9.774;2023-03-30T16:12:53;2.23;;;1.60;;
12925;SDS011;6529;50.566;9.774;2023-03-30T16:15:21;3.73;;;2.23;;
12925;SDS011;6529;50.566;9.774;2023-03-30T16:17:48;3.77;;;2.43;;
12925;SDS011;6529;50.566;9.774;2023-03-30T16:22:40;1.70;;;1.30;;
12925;SDS011;6529;50.566;9.774;2023-03-30T16:25:06;2.37;;;1.30;;
12925;SDS011;6529;50.566;9.774;2023-03-30T16:27:32;2.73;;;1.90;;
12925;SDS011;6529;50.566;9.774;2023-03-30T16:29:58;5.37;;;3.10;;
12925;SDS011;6529;50.566;9.774;2023-03-30T16:32:24;1.73;;;1.57;;
12925;SDS011;6529;50.566;9.774;2023-03-30T16:34:49;5.00;;;3.67;;
12925;SDS011;6529;50.566;9.774;2023-03-30T16:37:17;3.73;;;1.93;;
12925;SDS011;6529;50.566;9.774;2023-03-30T16:39:43;4.83;;;1.70;;
12925;SDS011;6529;50.566;9.774;2023-03-30T16:42:10;1.27;;;0.90;;
12925;SDS011;6529;50.566;9.774;2023-03-30T16:44:36;2.13;;;1.00;;
12925;SDS011;6529;50.566;9.774;2023-03-30T16:47:01;1.83;;;1.03;;
12925;SDS011;6529;50.566;9.774;2023-03-30T16:49:27;2.83;;;1.03;;
12925;SDS011;6529;50.566;9.774;2023-03-30T16:51:53;1.60;;;1.20;;
12925;SDS011;6529;50.566;9.774;2023-03-30T16:54:18;2.50;;;1.10;;
12925;SDS011;6529;50.566;9.774;2023-03-30T16:56:44;2.10;;;1.30;;
12925;SDS011;6529;50.566;9.774;2023-03-30T16:59:20;1.00;;;0.90;;
12925;SDS011;6529;50.566;9.774;2023-03-30T17:01:47;2.40;;;1.00;;
12925;SDS011;6529;50.566;9.774;2023-03-30T17:04:13;3.03;;;1.20;;
12925;SDS011;6529;50.566;9.774;2023-03-30T17:06:39;3.03;;;1.93;;
12925;SDS011;6529;50.566;9.774;2023-03-30T17:09:05;8.63;;;3.10;;
12925;SDS011;6529;50.566;9.774;2023-03-30T17:11:34;4.00;;;1.60;;
12925;SDS011;6529;50.566;9.774;2023-03-30T17:13:59;1.87;;;1.53;;
12925;SDS011;6529;50.566;9.774;2023-03-30T17:16:25;1.90;;;1.10;;
12925;SDS011;6529;50.566;9.774;2023-03-30T17:18:52;2.93;;;1.13;;
12925;SDS011;6529;50.566;9.774;2023-03-30T17:21:18;2.47;;;1.10;;
12925;SDS011;6529;50.566;9.774;2023-03-30T17:23:44;2.17;;;1.20;;
12925;SDS011;6529;50.566;9.774;2023-03-30T17:26:11;2.37;;;1.10;;
12925;SDS011;6529;50.566;9.774;2023-03-30T17:28:37;2.53;;;0.97;;
12925;SDS011;6529;50.566;9.774;2023-03-30T17:31:04;1.50;;;0.97;;
12925;SDS011;6529;50.566;9.774;2023-03-30T17:33:35;3.43;;;2.00;;
12925;SDS011;6529;50.566;9.774;2023-03-30T17:36:02;2.73;;;2.20;;
12925;SDS011;6529;50.566;9.774;2023-03-30T17:38:30;4.03;;;2.90;;
12925;SDS011;6529;50.566;9.774;2023-03-30T17:40:56;4.20;;;2.60;;
12925;SDS011;6529;50.566;9.774;2023-03-30T17:43:22;4.87;;;2.67;;
12925;SDS011;6529;50.566;9.774;2023-03-30T17:45:48;2.93;;;1.87;;
12925;SDS011;6529;50.566;9.774;2023-03-30T17:48:15;2.97;;;1.97;;
12925;SDS011;6529;50.566;9.774;2023-03-30T17:50:43;3.03;;;1.70;;
12925;SDS011;6529;50.566;9.774;2023-03-30T17:53:14;3.57;;;1.93;;
12925;SDS011;6529;50.566;9.774;2023-03-30T17:55:45;2.73;;;1.63;;
12925;SDS011;6529;50.566;9.774;2023-03-30T17:58:13;3.77;;;1.63;;
12925;SDS011;6529;50.566;9.774;2023-03-30T18:00:47;2.37;;;1.90;;
12925;SDS011;6529;50.566;9.774;2023-03-30T18:03:14;2.63;;;1.43;;
12925;SDS011;6529;50.566;9.774;2023-03-30T18:05:40;2.57;;;1.40;;
12925;SDS011;6529;50.566;9.774;2023-03-30T18:08:09;2.57;;;1.50;;
12925;SDS011;6529;50.566;9.774;2023-03-30T18:10:41;2.53;;;1.70;;
12925;SDS011;6529;50.566;9.774;2023-03-30T18:13:09;3.47;;;2.30;;
12925;SDS011;6529;50.566;9.774;2023-03-30T18:15:35;3.73;;;1.70;;
12925;SDS011;6529;50.566;9.774;2023-03-30T18:18:00;2.97;;;1.50;;